createdAt,value
2017-06-22T00:00:30.036Z,8.80
2017-06-22T00:02:57.568Z,7.90
2017-06-22T00:05:25.128Z,6.60
2017-06-22T00:07:52.650Z,6.67
2017-06-22T00:10:20.200Z,5.63
2017-06-22T00:12:48.491Z,6.67
2017-06-22T00:15:16.039Z,6.40
2017-06-22T00:17:43.590Z,5.70
2017-06-22T00:20:11.883Z,6.93
2017-06-22T00:22:40.195Z,8.40
2017-06-22T00:25:07.724Z,6.20
2017-06-22T00:27:35.269Z,6.57
2017-06-22T00:30:03.558Z,8.97
2017-06-22T00:32:31.122Z,7.10
2017-06-22T00:34:58.648Z,7.03
2017-06-22T00:37:26.939Z,7.33
2017-06-22T00:39:54.486Z,6.83
2017-06-22T00:42:22.780Z,7.30
2017-06-22T00:44:51.094Z,7.40
2017-06-22T00:47:18.620Z,6.83
2017-06-22T00:49:46.939Z,6.57
2017-06-22T00:52:14.463Z,7.30
2017-06-22T00:54:41.986Z,6.40
2017-06-22T00:57:09.531Z,6.00
2017-06-22T00:59:37.056Z,7.07
2017-06-22T01:02:04.604Z,6.80
2017-06-22T01:04:32.977Z,7.53
2017-06-22T01:07:00.638Z,7.20
2017-06-22T01:09:28.235Z,7.27
2017-06-22T01:11:55.853Z,7.40
2017-06-22T01:14:23.492Z,6.60
2017-06-22T01:16:51.091Z,9.87
2017-06-22T01:19:18.635Z,6.53
2017-06-22T01:21:46.164Z,6.23
2017-06-22T01:24:13.710Z,6.77
2017-06-22T01:26:41.230Z,8.03
2017-06-22T01:29:09.523Z,8.93
2017-06-22T01:31:37.075Z,8.23
2017-06-22T01:34:05.368Z,8.40
2017-06-22T01:36:32.912Z,8.30
2017-06-22T01:39:01.202Z,7.40
2017-06-22T01:41:28.746Z,5.80
2017-06-22T01:43:56.267Z,5.67
2017-06-22T01:46:24.587Z,5.73
2017-06-22T01:48:52.879Z,6.50
2017-06-22T01:51:20.408Z,7.60
2017-06-22T01:53:47.950Z,8.70
2017-06-22T01:56:15.474Z,6.97
2017-06-22T01:58:43.018Z,7.53
2017-06-22T02:01:10.551Z,7.87
2017-06-22T02:03:38.090Z,6.60
2017-06-22T02:06:05.616Z,6.90
2017-06-22T02:08:33.164Z,6.60
2017-06-22T02:11:00.696Z,7.80
2017-06-22T02:13:28.222Z,6.50
2017-06-22T02:15:55.767Z,6.57
2017-06-22T02:18:23.288Z,5.83
2017-06-22T02:20:50.827Z,7.97
2017-06-22T02:23:18.350Z,7.30
2017-06-22T02:25:45.896Z,7.17
2017-06-22T02:28:13.433Z,8.53
2017-06-22T02:30:41.718Z,7.63
2017-06-22T02:33:10.040Z,7.37
2017-06-22T02:35:37.564Z,7.03
2017-06-22T02:38:05.106Z,6.53
2017-06-22T02:40:33.391Z,6.83
2017-06-22T02:43:01.708Z,6.50
2017-06-22T02:45:29.234Z,6.53
2017-06-22T02:47:56.756Z,6.63
2017-06-22T02:50:25.063Z,5.10
2017-06-22T02:52:52.583Z,5.63
2017-06-22T02:55:20.130Z,5.37
2017-06-22T02:57:47.656Z,6.87
2017-06-22T03:00:15.208Z,8.60
2017-06-22T03:02:42.737Z,8.40
2017-06-22T03:05:11.030Z,8.03
2017-06-22T03:07:50.524Z,8.23
2017-06-22T03:10:18.047Z,9.10
2017-06-22T03:12:45.589Z,9.33
2017-06-22T03:15:13.879Z,8.67
2017-06-22T03:17:41.434Z,7.37
2017-06-22T03:20:08.960Z,6.13
2017-06-22T03:22:36.485Z,5.83
2017-06-22T03:25:04.036Z,6.67
2017-06-22T03:27:31.564Z,8.33
2017-06-22T03:29:59.108Z,8.93
2017-06-22T03:32:26.627Z,8.93
2017-06-22T03:34:54.183Z,7.93
2017-06-22T03:37:21.711Z,7.83
2017-06-22T03:39:49.235Z,8.73
2017-06-22T03:42:16.779Z,14.90
2017-06-22T03:44:44.316Z,8.90
2017-06-22T03:47:11.860Z,9.73
2017-06-22T03:49:39.384Z,5.77
2017-06-22T03:52:06.922Z,5.30
2017-06-22T03:54:34.442Z,4.70
2017-06-22T03:57:01.994Z,9.53
2017-06-22T03:59:29.520Z,8.70
2017-06-22T04:01:57.046Z,7.37
2017-06-22T04:04:24.591Z,7.63
2017-06-22T04:06:52.110Z,7.63
2017-06-22T04:09:19.651Z,8.57
2017-06-22T04:11:47.174Z,7.87
2017-06-22T04:14:14.719Z,7.40
2017-06-22T04:16:42.249Z,7.10
2017-06-22T04:19:09.808Z,6.83
2017-06-22T04:21:37.330Z,5.90
2017-06-22T04:24:04.855Z,7.30
2017-06-22T04:26:32.399Z,8.60
2017-06-22T04:28:59.931Z,8.53
2017-06-22T04:31:27.475Z,8.13
2017-06-22T04:33:55.003Z,10.13
2017-06-22T04:36:22.543Z,5.87
2017-06-22T04:38:50.833Z,6.07
2017-06-22T04:41:19.147Z,6.90
2017-06-22T04:43:46.667Z,8.20
2017-06-22T04:46:14.187Z,8.07
2017-06-22T04:48:41.738Z,14.00
2017-06-22T04:51:09.274Z,7.53
2017-06-22T04:53:36.818Z,8.77
2017-06-22T04:56:04.359Z,8.20
2017-06-22T04:58:31.882Z,7.80
2017-06-22T05:01:00.192Z,7.00
2017-06-22T05:03:27.714Z,9.63
2017-06-22T05:05:55.259Z,10.63
2017-06-22T05:08:22.783Z,8.27
2017-06-22T05:10:50.340Z,8.20
2017-06-22T05:13:17.860Z,8.17
2017-06-22T05:15:45.384Z,6.87
2017-06-22T05:18:13.695Z,13.90
2017-06-22T05:20:41.220Z,7.53
2017-06-22T05:23:08.764Z,8.40
2017-06-22T05:25:36.292Z,8.33
2017-06-22T05:28:03.854Z,8.07
2017-06-22T05:30:31.380Z,8.60
2017-06-22T05:32:58.911Z,8.97
2017-06-22T05:35:26.462Z,8.80
2017-06-22T05:37:53.987Z,8.77
2017-06-22T05:40:21.535Z,8.83
2017-06-22T05:42:49.828Z,9.07
2017-06-22T05:45:17.373Z,9.43
2017-06-22T05:47:44.904Z,9.10
2017-06-22T05:50:12.454Z,9.50
2017-06-22T05:52:39.982Z,7.87
2017-06-22T05:55:07.814Z,8.70
2017-06-22T05:57:35.342Z,8.80
2017-06-22T06:00:02.865Z,8.40
2017-06-22T06:02:30.412Z,9.23
2017-06-22T06:04:57.943Z,8.63
2017-06-22T06:07:26.255Z,8.90
2017-06-22T06:09:53.787Z,9.20
2017-06-22T06:12:21.336Z,8.30
2017-06-22T06:14:48.862Z,8.73
2017-06-22T06:17:16.403Z,7.67
2017-06-22T06:19:43.931Z,7.97
2017-06-22T06:22:11.512Z,7.67
2017-06-22T06:24:40.378Z,8.63
2017-06-22T06:27:07.991Z,9.20
2017-06-22T06:29:35.538Z,7.73
2017-06-22T06:32:03.100Z,7.20
2017-06-22T06:34:30.646Z,7.40
2017-06-22T06:36:58.700Z,8.20
2017-06-22T06:39:27.972Z,7.97
2017-06-22T06:41:55.570Z,5.67
2017-06-22T06:44:23.122Z,7.80
2017-06-22T06:46:50.647Z,8.40
2017-06-22T06:49:18.204Z,8.73
2017-06-22T06:51:45.730Z,6.50
2017-06-22T06:54:13.250Z,7.27
2017-06-22T06:56:40.791Z,8.03
2017-06-22T06:59:09.105Z,6.57
2017-06-22T07:01:36.779Z,13.07
2017-06-22T07:04:04.304Z,7.83
2017-06-22T07:06:31.858Z,6.13
2017-06-22T07:09:00.953Z,7.57
2017-06-22T07:11:28.487Z,7.13
2017-06-22T07:13:56.040Z,7.87
2017-06-22T07:16:23.568Z,6.90
2017-06-22T07:18:51.115Z,7.30
2017-06-22T07:21:19.455Z,7.83
2017-06-22T07:23:47.006Z,7.37
2017-06-22T07:26:14.533Z,7.43
2017-06-22T07:28:42.118Z,8.53
2017-06-22T07:31:09.646Z,9.57
2017-06-22T07:33:37.202Z,9.30
2017-06-22T07:36:04.726Z,7.67
2017-06-22T07:38:32.255Z,7.77
2017-06-22T07:40:59.795Z,9.90
2017-06-22T07:43:27.335Z,8.50
2017-06-22T07:45:54.876Z,9.20
2017-06-22T07:48:22.398Z,7.80
2017-06-22T07:50:49.940Z,9.10
2017-06-22T07:53:17.464Z,8.00
2017-06-22T07:55:45.000Z,9.43
2017-06-22T07:58:12.527Z,7.77
2017-06-22T08:00:40.081Z,8.70
2017-06-22T08:03:07.602Z,9.07
2017-06-22T08:05:35.176Z,8.30
2017-06-22T08:08:02.722Z,10.37
2017-06-22T08:10:30.247Z,7.80
2017-06-22T08:12:57.800Z,10.33
2017-06-22T08:15:26.102Z,9.77
2017-06-22T08:17:53.658Z,10.43
2017-06-22T08:20:21.186Z,10.37
2017-06-22T08:22:49.500Z,8.90
2017-06-22T08:25:17.027Z,8.93
2017-06-22T08:27:44.551Z,8.70
2017-06-22T08:30:12.096Z,8.90
2017-06-22T08:32:39.623Z,9.20
2017-06-22T08:35:07.176Z,10.23
2017-06-22T08:37:35.476Z,8.63
2017-06-22T08:40:03.038Z,10.10
2017-06-22T08:42:31.327Z,8.43
2017-06-22T08:44:58.855Z,8.90
2017-06-22T08:47:26.404Z,9.60
2017-06-22T08:49:53.936Z,10.97
2017-06-22T08:52:22.251Z,11.63
2017-06-22T08:54:49.783Z,9.90
2017-06-22T08:57:17.326Z,9.00
2017-06-22T08:59:44.858Z,10.00
2017-06-22T09:02:12.438Z,11.50
2017-06-22T09:04:39.970Z,9.97
2017-06-22T09:07:07.500Z,10.87
2017-06-22T09:09:35.052Z,11.23
2017-06-22T09:12:02.588Z,12.33
2017-06-22T09:14:30.143Z,10.40
2017-06-22T09:16:57.674Z,10.03
2017-06-22T09:19:25.993Z,11.33
2017-06-22T09:21:53.526Z,8.50
2017-06-22T09:24:21.098Z,11.10
2017-06-22T09:26:49.394Z,11.30
2017-06-22T09:29:16.928Z,11.70
2017-06-22T09:31:44.479Z,8.93
2017-06-22T09:34:12.011Z,10.23
2017-06-22T09:36:39.559Z,10.60
2017-06-22T09:39:07.094Z,10.27
2017-06-22T09:41:35.414Z,12.10
2017-06-22T09:44:02.943Z,10.53
2017-06-22T09:46:30.492Z,10.50
2017-06-22T09:48:58.029Z,9.57
2017-06-22T09:51:25.591Z,11.83
2017-06-22T09:53:53.878Z,9.67
2017-06-22T09:56:21.412Z,11.70
2017-06-22T09:58:48.965Z,11.17
2017-06-22T10:01:16.506Z,10.23
2017-06-22T10:03:44.054Z,9.73
2017-06-22T10:06:12.354Z,11.23
2017-06-22T10:08:39.898Z,11.10
2017-06-22T10:11:07.430Z,11.00
2017-06-22T10:13:34.980Z,9.37
2017-06-22T10:16:02.513Z,11.40
2017-06-22T10:18:30.084Z,10.17
2017-06-22T10:20:57.606Z,9.40
2017-06-22T10:23:25.131Z,9.97
2017-06-22T10:25:52.680Z,10.43
2017-06-22T10:28:20.208Z,9.80
2017-06-22T10:30:47.755Z,9.90
2017-06-22T10:33:15.286Z,11.50
2017-06-22T10:35:42.838Z,10.30
2017-06-22T10:38:10.367Z,10.23
2017-06-22T10:40:38.696Z,8.93
2017-06-22T10:43:06.230Z,9.37
2017-06-22T10:45:33.951Z,8.53
2017-06-22T10:48:01.479Z,8.60
2017-06-22T10:50:29.004Z,9.60
2017-06-22T10:52:56.542Z,8.07
2017-06-22T10:55:24.067Z,9.17
2017-06-22T10:57:51.614Z,9.40
2017-06-22T11:00:19.139Z,9.17
2017-06-22T11:02:46.699Z,9.60
2017-06-22T11:05:14.235Z,8.87
2017-06-22T11:07:41.797Z,9.93
2017-06-22T11:10:09.339Z,9.67
2017-06-22T11:12:36.863Z,9.47
2017-06-22T11:15:04.407Z,9.50
2017-06-22T11:17:31.939Z,10.07
2017-06-22T11:19:59.487Z,9.47
2017-06-22T11:22:27.020Z,9.10
2017-06-22T11:24:55.016Z,8.33
2017-06-22T11:27:23.140Z,10.27
2017-06-22T11:29:50.665Z,9.70
2017-06-22T11:32:18.979Z,10.53
2017-06-22T11:34:46.519Z,11.00
2017-06-22T11:37:14.067Z,8.40
2017-06-22T11:39:41.591Z,9.80
2017-06-22T11:42:09.147Z,9.90
2017-06-22T11:44:36.688Z,11.00
2017-06-22T11:47:04.214Z,10.57
2017-06-22T11:49:31.759Z,10.33
2017-06-22T11:52:00.059Z,11.30
2017-06-22T11:54:28.368Z,9.30
2017-06-22T11:56:55.902Z,11.73
2017-06-22T11:59:23.461Z,10.67
2017-06-22T12:01:51.004Z,10.10
2017-06-22T12:04:19.324Z,9.67
2017-06-22T12:06:46.855Z,9.50
2017-06-22T12:09:14.414Z,9.27
2017-06-22T12:11:41.943Z,11.90
2017-06-22T12:14:09.470Z,9.23
2017-06-22T12:16:37.015Z,8.87
2017-06-22T12:19:04.542Z,8.30
2017-06-22T12:21:32.095Z,11.47
2017-06-22T12:23:59.626Z,10.80
2017-06-22T12:26:27.172Z,10.20
2017-06-22T12:28:54.703Z,10.30
2017-06-22T12:31:23.028Z,10.40
2017-06-22T12:33:50.559Z,10.40
2017-06-22T12:36:18.856Z,9.57
2017-06-22T12:38:46.410Z,11.23
2017-06-22T12:41:13.942Z,11.27
2017-06-22T12:43:41.499Z,11.03
2017-06-22T12:46:09.031Z,10.00
2017-06-22T12:48:36.612Z,11.13
2017-06-22T12:51:13.933Z,12.37
2017-06-22T12:53:42.262Z,10.77
2017-06-22T12:56:09.796Z,11.13
2017-06-22T12:58:37.323Z,11.20
2017-06-22T13:01:05.636Z,10.37
2017-06-22T13:03:33.162Z,11.80
2017-06-22T13:06:00.713Z,9.87
2017-06-22T13:08:28.244Z,11.13
2017-06-22T13:10:55.790Z,10.70
2017-06-22T13:13:23.319Z,10.80
2017-06-22T13:15:51.643Z,10.60
2017-06-22T13:18:19.943Z,10.00
2017-06-22T13:20:47.472Z,10.60
2017-06-22T13:23:15.016Z,9.47
2017-06-22T13:25:42.543Z,10.50
2017-06-22T13:28:10.097Z,10.70
2017-06-22T13:30:37.633Z,11.03
2017-06-22T13:33:05.203Z,12.87
2017-06-22T13:35:32.734Z,11.33
2017-06-22T13:38:00.294Z,9.30
2017-06-22T13:40:27.825Z,10.40
2017-06-22T13:42:56.156Z,10.80
2017-06-22T13:45:23.695Z,11.30
2017-06-22T13:47:51.988Z,10.20
2017-06-22T13:50:19.543Z,10.47
2017-06-22T13:52:47.844Z,10.40
2017-06-22T13:55:15.391Z,9.57
2017-06-22T13:57:42.930Z,11.00
2017-06-22T14:00:10.474Z,10.93
2017-06-22T14:02:38.003Z,11.93
2017-06-22T14:05:06.315Z,10.50
2017-06-22T14:07:33.843Z,11.33
2017-06-22T14:10:01.397Z,10.80
2017-06-22T14:12:28.926Z,9.33
2017-06-22T14:14:56.463Z,11.00
2017-06-22T14:17:24.011Z,11.13
2017-06-22T14:19:51.543Z,10.90
2017-06-22T14:22:19.087Z,12.00
2017-06-22T14:24:46.624Z,10.20
2017-06-22T14:27:14.175Z,10.90
2017-06-22T14:29:41.707Z,10.97
2017-06-22T14:32:09.251Z,10.87
2017-06-22T14:34:36.779Z,10.40
2017-06-22T14:37:04.335Z,11.27
2017-06-22T14:39:31.869Z,10.63
2017-06-22T14:41:59.967Z,10.20
2017-06-22T14:44:27.522Z,11.53
2017-06-22T14:46:55.052Z,10.57
2017-06-22T14:49:22.601Z,11.20
2017-06-22T14:51:50.139Z,11.00
2017-06-22T14:54:17.684Z,11.57
2017-06-22T14:56:45.216Z,10.70
2017-06-22T14:59:12.773Z,11.13
2017-06-22T15:01:40.308Z,14.17
2017-06-22T15:04:07.876Z,12.73
2017-06-22T15:06:36.175Z,11.00
2017-06-22T15:09:03.712Z,11.40
2017-06-22T15:11:31.261Z,10.63
2017-06-22T15:13:58.796Z,10.57
2017-06-22T15:16:27.630Z,10.20
2017-06-22T15:18:55.159Z,10.87
2017-06-22T15:21:22.724Z,15.07
2017-06-22T15:23:50.266Z,10.50
2017-06-22T15:26:17.802Z,10.90
2017-06-22T15:28:45.355Z,11.57
2017-06-22T15:31:12.884Z,11.03
2017-06-22T15:33:40.435Z,11.50
2017-06-22T15:36:07.969Z,12.07
2017-06-22T15:38:36.300Z,11.30
2017-06-22T15:41:03.837Z,10.70
2017-06-22T15:43:32.155Z,11.43
2017-06-22T15:45:59.704Z,10.87
2017-06-22T15:48:28.000Z,11.13
2017-06-22T15:50:55.562Z,12.90
2017-06-22T15:53:23.096Z,11.53
2017-06-22T15:55:50.645Z,11.97
2017-06-22T15:58:18.955Z,11.60
2017-06-22T16:00:47.296Z,12.50
2017-06-22T16:03:14.828Z,11.10
2017-06-22T16:05:42.370Z,11.10
2017-06-22T16:08:09.919Z,11.73
2017-06-22T16:10:37.466Z,10.97
2017-06-22T16:13:05.009Z,16.03
2017-06-22T16:15:32.536Z,12.23
2017-06-22T16:18:00.851Z,12.30
2017-06-22T16:20:29.151Z,11.70
2017-06-22T16:22:56.726Z,12.13
2017-06-22T16:25:24.251Z,11.83
2017-06-22T16:27:52.552Z,12.60
2017-06-22T16:30:20.098Z,12.43
2017-06-22T16:32:47.628Z,12.77
2017-06-22T16:35:15.190Z,12.43
2017-06-22T16:37:43.520Z,12.00
2017-06-22T16:40:11.095Z,11.90
2017-06-22T16:42:38.623Z,13.27
2017-06-22T16:45:06.166Z,10.57
2017-06-22T16:47:33.719Z,13.80
2017-06-22T16:50:01.256Z,12.73
2017-06-22T16:52:28.817Z,11.67
2017-06-22T16:54:56.351Z,11.10
2017-06-22T16:57:23.904Z,14.03
2017-06-22T16:59:52.224Z,12.47
2017-06-22T17:02:20.522Z,13.83
2017-06-22T17:04:48.077Z,12.70
2017-06-22T17:07:15.606Z,14.47
2017-06-22T17:09:43.159Z,16.50
2017-06-22T17:12:10.696Z,13.50
2017-06-22T17:14:39.010Z,14.57
2017-06-22T17:17:06.545Z,13.47
2017-06-22T17:19:34.151Z,12.30
2017-06-22T17:22:02.477Z,12.20
2017-06-22T17:24:30.776Z,13.03
2017-06-22T17:26:58.327Z,11.87
2017-06-22T17:29:25.858Z,11.00
2017-06-22T17:31:53.423Z,10.47
2017-06-22T17:34:21.723Z,11.97
2017-06-22T17:36:49.254Z,11.40
2017-06-22T17:39:16.807Z,13.13
2017-06-22T17:41:44.335Z,10.30
2017-06-22T17:44:12.660Z,11.93
2017-06-22T17:46:40.970Z,13.47
2017-06-22T17:49:09.308Z,12.33
2017-06-22T17:51:36.842Z,12.00
2017-06-22T17:54:04.372Z,12.40
2017-06-22T17:56:31.918Z,10.20
2017-06-22T17:58:59.446Z,13.53
2017-06-22T18:01:27.003Z,10.83
2017-06-22T18:03:54.532Z,11.67
2017-06-22T18:06:22.082Z,11.27
2017-06-22T18:08:49.614Z,12.63
2017-06-22T18:11:17.171Z,12.17
2017-06-22T18:13:44.699Z,11.13
2017-06-22T18:16:12.227Z,11.07
2017-06-22T18:18:39.775Z,10.80
2017-06-22T18:21:07.299Z,10.30
2017-06-22T18:23:34.857Z,11.50
2017-06-22T18:26:02.392Z,12.30
2017-06-22T18:28:29.918Z,11.13
2017-06-22T18:30:57.476Z,13.60
2017-06-22T18:33:25.011Z,11.17
2017-06-22T18:35:52.556Z,10.97
2017-06-22T18:38:20.095Z,11.13
2017-06-22T18:40:47.663Z,13.23
2017-06-22T18:43:15.971Z,11.70
2017-06-22T18:45:43.503Z,12.33
2017-06-22T18:48:11.823Z,13.33
2017-06-22T18:50:39.358Z,16.97
2017-06-22T18:53:06.910Z,12.33
2017-06-22T18:55:34.435Z,10.40
2017-06-22T18:58:01.979Z,10.50
2017-06-22T19:00:29.504Z,11.33
2017-06-22T19:02:57.063Z,12.87
2017-06-22T19:05:24.595Z,14.17
2017-06-22T19:07:52.127Z,12.17
2017-06-22T19:10:19.687Z,13.73
2017-06-22T19:12:47.223Z,11.47
2017-06-22T19:15:14.763Z,10.60
2017-06-22T19:17:42.295Z,11.77
2017-06-22T19:20:09.851Z,10.33
2017-06-22T19:22:37.386Z,11.17
2017-06-22T19:25:04.935Z,11.60
2017-06-22T19:27:32.472Z,11.53
2017-06-22T19:30:00.799Z,10.43
2017-06-22T19:32:28.332Z,13.03
2017-06-22T19:34:55.862Z,15.40
2017-06-22T19:37:23.410Z,13.63
2017-06-22T19:39:50.939Z,11.40
2017-06-22T19:42:18.491Z,12.87
2017-06-22T19:44:46.020Z,12.40
2017-06-22T19:47:13.567Z,12.10
2017-06-22T19:49:41.103Z,12.07
2017-06-22T19:52:08.657Z,11.03
2017-06-22T19:54:36.952Z,10.93
2017-06-22T19:57:04.487Z,12.97
2017-06-22T19:59:32.803Z,11.70
2017-06-22T20:02:00.345Z,10.80
2017-06-22T20:04:27.892Z,11.73
2017-06-22T20:06:56.191Z,12.80
2017-06-22T20:09:23.742Z,14.50
2017-06-22T20:11:51.277Z,13.90
2017-06-22T20:14:18.840Z,11.20
2017-06-22T20:16:46.366Z,9.70
2017-06-22T20:19:13.891Z,12.30
2017-06-22T20:21:41.444Z,15.40
2017-06-22T20:24:08.974Z,13.50
2017-06-22T20:26:36.524Z,11.50
2017-06-22T20:29:04.057Z,11.50
2017-06-22T20:31:31.599Z,9.97
2017-06-22T20:33:59.127Z,8.87
2017-06-22T20:36:26.686Z,10.77
2017-06-22T20:38:54.219Z,14.20
2017-06-22T20:41:22.524Z,12.10
2017-06-22T20:43:50.075Z,13.20
2017-06-22T20:46:18.370Z,12.90
2017-06-22T20:48:45.920Z,12.73
2017-06-22T20:51:13.454Z,11.50
2017-06-22T20:53:40.999Z,11.17
2017-06-22T20:56:08.535Z,13.30
2017-06-22T20:58:36.858Z,9.83
2017-06-22T21:01:05.164Z,12.63
2017-06-22T21:03:32.699Z,14.23
2017-06-22T21:06:00.256Z,14.13
2017-06-22T21:08:27.792Z,12.50
2017-06-22T21:10:55.344Z,12.97
2017-06-22T21:13:22.874Z,14.03
2017-06-22T21:15:50.427Z,12.83
2017-06-22T21:18:17.959Z,19.90
2017-06-22T21:20:45.521Z,15.77
2017-06-22T21:23:13.056Z,14.33
2017-06-22T21:25:40.589Z,13.93
2017-06-22T21:28:08.143Z,13.90
2017-06-22T21:30:35.676Z,15.67
2017-06-22T21:33:03.995Z,12.83
2017-06-22T21:35:31.530Z,12.47
2017-06-22T21:37:59.079Z,9.80
2017-06-22T21:40:26.608Z,8.87
2017-06-22T21:42:54.936Z,12.97
2017-06-22T21:45:22.467Z,14.80
2017-06-22T21:47:50.002Z,13.23
2017-06-22T21:50:17.555Z,13.97
2017-06-22T21:52:45.082Z,13.60
2017-06-22T21:55:12.627Z,11.13
2017-06-22T21:57:40.926Z,12.37
2017-06-22T22:00:08.485Z,14.10
2017-06-22T22:02:36.022Z,14.03
2017-06-22T22:05:03.558Z,12.63
2017-06-22T22:07:31.111Z,12.67
2017-06-22T22:09:58.640Z,11.20
2017-06-22T22:12:26.190Z,13.17
2017-06-22T22:14:53.733Z,12.30
2017-06-22T22:17:21.279Z,10.57
2017-06-22T22:19:48.812Z,12.73
2017-06-22T22:22:16.343Z,12.20
2017-06-22T22:24:43.894Z,11.77
2017-06-22T22:27:11.424Z,11.87
2017-06-22T22:29:38.979Z,12.43
2017-06-22T22:32:06.515Z,11.77
2017-06-22T22:34:34.067Z,11.43
2017-06-22T22:37:01.593Z,13.80
2017-06-22T22:39:29.922Z,14.63
2017-06-22T22:41:57.450Z,11.63
2017-06-22T22:44:24.979Z,16.00
2017-06-22T22:46:52.535Z,12.43
2017-06-22T22:49:20.067Z,13.77
2017-06-22T22:51:47.620Z,16.03
2017-06-22T22:54:15.151Z,14.13
2017-06-22T22:56:42.703Z,11.43
2017-06-22T22:59:10.240Z,17.53
2017-06-22T23:01:37.792Z,14.07
2017-06-22T23:04:05.321Z,11.40
2017-06-22T23:06:32.887Z,11.13
2017-06-22T23:09:00.411Z,12.13
2017-06-22T23:11:27.939Z,10.53
2017-06-22T23:13:56.254Z,13.13
2017-06-22T23:16:23.782Z,11.17
2017-06-22T23:18:51.322Z,9.87
2017-06-22T23:21:19.664Z,12.50
2017-06-22T23:23:47.207Z,10.43
2017-06-22T23:26:14.735Z,10.10
2017-06-22T23:28:42.279Z,9.53
2017-06-22T23:31:09.798Z,8.37
2017-06-22T23:33:37.325Z,9.80
2017-06-22T23:36:04.862Z,9.73
2017-06-22T23:38:32.386Z,15.13
2017-06-22T23:40:59.931Z,16.03
2017-06-22T23:43:27.460Z,14.43
2017-06-22T23:45:55.003Z,16.00
2017-06-22T23:48:22.531Z,14.10
2017-06-22T23:50:50.099Z,11.90
2017-06-22T23:53:17.627Z,14.07
2017-06-22T23:55:45.160Z,10.70
2017-06-22T23:58:12.712Z,11.93
